Time;durP1;ratioP1;P1;durP2;ratioP2;P2;SDS_P1;SDS_P2;PMS_P1;PMS_P2;Temp;Humidity;BMP_temperature;BMP_pressure;BME280_temperature;BME280_humidity;BME280_pressure;Samples;Min_cycle;Max_cycle;Signal;HPM_P1;HPM_P2
2023/03/06 00:00:33;;;;;;;12.90;8.47;;;4.80;1.00;;;;;;5037154;28;20451;-81
2023/03/06 00:03:00;;;;;;;12.47;9.60;;;4.90;1.00;;;;;;5036455;28;21189;-82
2023/03/06 00:05:27;;;;;;;13.43;9.07;;;4.90;1.00;;;;;;5041105;23;20592;-83
2023/03/06 00:07:54;;;;;;;11.63;8.83;;;4.90;1.00;;;;;;5022786;28;20541;-84
2023/03/06 00:10:23;;;;;;;9.83;8.60;;;4.90;1.00;;;;;;5033401;28;20541;-80
2023/03/06 00:12:53;;;;;;;12.53;9.73;;;4.90;1.00;;;;;;5032069;28;20521;-83
2023/03/06 00:15:20;;;;;;;14.40;10.07;;;4.80;1.00;;;;;;5010055;28;20469;-82
2023/03/06 00:17:47;;;;;;;16.60;10.60;;;4.80;1.00;;;;;;4995842;28;20457;-82
2023/03/06 00:20:14;;;;;;;21.00;13.03;;;4.80;1.00;;;;;;4993618;28;20438;-82
2023/03/06 00:22:41;;;;;;;17.90;11.80;;;4.90;1.00;;;;;;4995546;28;20472;-83
2023/03/06 00:25:12;;;;;;;14.80;9.77;;;4.90;1.00;;;;;;4995904;28;20860;-82
2023/03/06 00:27:39;;;;;;;15.37;11.40;;;4.90;1.00;;;;;;4995915;28;20454;-81
2023/03/06 00:30:10;;;;;;;15.30;9.93;;;4.90;1.00;;;;;;4995737;28;20459;-83
2023/03/06 00:32:37;;;;;;;14.90;11.40;;;4.90;1.00;;;;;;4998250;28;20446;-83
2023/03/06 00:35:04;;;;;;;14.80;11.60;;;4.80;1.00;;;;;;5001912;28;20479;-85
2023/03/06 00:37:31;;;;;;;18.20;13.93;;;4.80;1.00;;;;;;5003782;28;20515;-83
2023/03/06 00:39:58;;;;;;;43.27;24.70;;;4.90;1.00;;;;;;5001460;28;20454;-83
2023/03/06 00:42:25;;;;;;;73.07;35.83;;;5.00;1.00;;;;;;5000678;28;20460;-83
2023/03/06 00:44:52;;;;;;;22.00;15.20;;;4.90;1.00;;;;;;4999495;28;20478;-83
2023/03/06 00:47:21;;;;;;;18.03;13.33;;;5.00;1.00;;;;;;5001829;28;20461;-82
2023/03/06 00:49:47;;;;;;;16.83;11.63;;;5.00;1.00;;;;;;5001170;28;20455;-81
2023/03/06 00:52:14;;;;;;;16.60;12.60;;;5.00;1.00;;;;;;5001020;28;20830;-82
2023/03/06 00:54:41;;;;;;;18.77;13.63;;;5.00;1.00;;;;;;4998943;28;20454;-83
2023/03/06 00:57:08;;;;;;;21.27;15.77;;;5.00;1.00;;;;;;4999522;28;20497;-82
2023/03/06 00:59:35;;;;;;;26.47;16.70;;;4.90;1.00;;;;;;4998877;28;20591;-83
2023/03/06 01:02:02;;;;;;;25.13;16.63;;;5.00;1.00;;;;;;4998266;28;21049;-82
2023/03/06 01:04:31;;;;;;;28.60;18.23;;;5.00;1.00;;;;;;4998676;28;20483;-82
2023/03/06 01:06:58;;;;;;;18.40;15.20;;;4.90;1.00;;;;;;4998477;28;20991;-81
2023/03/06 01:09:25;;;;;;;20.80;13.83;;;4.90;1.00;;;;;;4998212;28;20459;-82
2023/03/06 01:11:51;;;;;;;19.20;13.23;;;4.70;1.00;;;;;;4995607;28;20455;-81
2023/03/06 01:14:19;;;;;;;17.20;13.00;;;4.70;1.00;;;;;;4995088;28;20485;-82
2023/03/06 01:16:45;;;;;;;18.50;13.27;;;4.60;1.00;;;;;;4995138;28;20454;-82
2023/03/06 01:19:12;;;;;;;19.17;13.27;;;4.70;1.00;;;;;;4995180;28;20500;-82
2023/03/06 01:21:40;;;;;;;20.07;13.40;;;4.70;1.00;;;;;;4994774;28;20995;-82
2023/03/06 01:24:07;;;;;;;16.50;12.37;;;4.60;1.00;;;;;;4994813;28;20483;-81
2023/03/06 01:26:34;;;;;;;14.10;10.77;;;4.70;1.00;;;;;;4994552;28;20478;-80
2023/03/06 01:29:01;;;;;;;14.67;11.47;;;4.70;1.00;;;;;;4993992;28;20452;-82
2023/03/06 01:31:28;;;;;;;12.40;10.37;;;4.70;1.00;;;;;;4994814;28;20457;-82
2023/03/06 01:33:55;;;;;;;15.10;11.80;;;4.70;1.00;;;;;;4994693;28;20454;-82
2023/03/06 01:36:22;;;;;;;13.07;10.30;;;4.70;1.00;;;;;;4994441;28;20522;-83
2023/03/06 01:38:50;;;;;;;12.10;9.33;;;4.70;1.00;;;;;;4994600;28;20529;-81
2023/03/06 01:41:19;;;;;;;13.30;10.77;;;4.70;1.00;;;;;;4994667;28;20459;-81
2023/03/06 01:43:47;;;;;;;14.00;11.30;;;4.70;1.00;;;;;;4994257;28;20439;-81
2023/03/06 01:46:37;;;;;;;15.10;11.33;;;4.80;1.00;;;;;;4993859;28;20556;-82
2023/03/06 01:49:08;;;;;;;12.27;9.40;;;4.70;1.00;;;;;;4994274;28;20875;-82
2023/03/06 01:51:38;;;;;;;12.97;10.17;;;4.70;1.00;;;;;;4993751;28;20455;-81
2023/03/06 01:54:10;;;;;;;14.70;9.90;;;4.70;1.00;;;;;;4993468;28;20486;-82
2023/03/06 01:56:38;;;;;;;16.90;10.43;;;4.80;1.00;;;;;;4993498;28;20467;-83
2023/03/06 01:59:07;;;;;;;12.47;9.30;;;4.80;1.00;;;;;;4993410;28;20482;-82
2023/03/06 02:01:33;;;;;;;11.67;9.40;;;4.80;1.00;;;;;;4994014;28;20501;-81
2023/03/06 02:04:01;;;;;;;14.80;10.87;;;4.80;1.00;;;;;;4993464;28;20426;-83
2023/03/06 02:06:28;;;;;;;12.73;10.17;;;4.60;1.00;;;;;;4994249;28;20460;-82
2023/03/06 02:08:55;;;;;;;15.80;11.50;;;4.80;1.00;;;;;;4994109;28;20466;-82
2023/03/06 02:11:24;;;;;;;18.63;12.00;;;4.70;1.00;;;;;;4993996;28;20447;-82
2023/03/06 02:13:53;;;;;;;14.50;11.53;;;4.50;1.00;;;;;;4994097;28;20852;-83
2023/03/06 02:16:23;;;;;;;14.50;10.73;;;4.60;1.00;;;;;;4993990;28;20437;-80
2023/03/06 02:18:51;;;;;;;15.00;11.27;;;4.70;1.00;;;;;;4994396;28;20478;-83
2023/03/06 02:21:22;;;;;;;17.53;12.03;;;4.70;1.00;;;;;;4993811;28;20983;-82
2023/03/06 02:23:59;;;;;;;13.87;11.00;;;4.70;1.00;;;;;;5004574;28;20461;-84
2023/03/06 02:26:28;;;;;;;16.23;12.20;;;4.80;1.00;;;;;;5002040;28;20485;-84
2023/03/06 02:28:57;;;;;;;15.97;12.10;;;4.80;1.00;;;;;;5000273;28;20452;-84
2023/03/06 02:31:26;;;;;;;18.80;13.27;;;4.70;1.00;;;;;;5000561;28;21039;-83
2023/03/06 02:34:01;;;;;;;17.13;12.50;;;4.80;1.00;;;;;;5000098;28;20432;-83
2023/03/06 02:36:29;;;;;;;17.97;12.73;;;4.90;1.00;;;;;;4999705;28;20456;-83
2023/03/06 02:38:57;;;;;;;15.57;12.30;;;4.90;1.00;;;;;;4998552;28;20482;-83
2023/03/06 02:41:24;;;;;;;15.90;12.30;;;4.90;1.00;;;;;;4998739;28;20462;-83
2023/03/06 02:43:53;;;;;;;15.53;11.77;;;4.80;1.00;;;;;;4998944;28;20460;-83
2023/03/06 02:46:19;;;;;;;13.97;10.73;;;4.70;1.00;;;;;;4997772;28;21077;-83
2023/03/06 02:48:46;;;;;;;13.90;10.70;;;4.60;1.00;;;;;;4998054;28;20422;-83
2023/03/06 02:51:13;;;;;;;15.87;12.07;;;4.50;1.00;;;;;;4996784;28;20830;-82
2023/03/06 02:53:40;;;;;;;15.93;12.53;;;4.50;1.00;;;;;;4995083;28;20537;-82
2023/03/06 02:56:07;;;;;;;16.40;12.27;;;4.40;1.00;;;;;;4994130;28;20801;-82
2023/03/06 02:58:34;;;;;;;17.23;11.37;;;4.40;1.00;;;;;;4994301;28;20464;-83
2023/03/06 03:01:03;;;;;;;17.07;12.80;;;4.40;1.00;;;;;;4994174;28;20465;-82
2023/03/06 03:03:29;;;;;;;15.93;12.47;;;4.40;1.00;;;;;;4993745;28;20545;-82
2023/03/06 03:05:56;;;;;;;15.23;11.80;;;4.30;1.00;;;;;;4993421;28;21011;-82
2023/03/06 03:08:23;;;;;;;15.87;10.63;;;4.30;1.00;;;;;;4996206;28;20462;-82
2023/03/06 03:10:50;;;;;;;14.20;11.40;;;4.40;1.00;;;;;;4997498;28;20931;-82
2023/03/06 03:13:18;;;;;;;17.00;12.10;;;4.40;1.00;;;;;;4998571;28;20562;-83
2023/03/06 03:15:45;;;;;;;18.43;12.37;;;4.40;1.00;;;;;;4997052;28;20497;-82
2023/03/06 03:18:13;;;;;;;15.27;11.17;;;4.20;1.00;;;;;;4997032;28;20454;-82
2023/03/06 03:20:42;;;;;;;18.87;13.13;;;4.30;1.00;;;;;;4996810;28;20560;-82
2023/03/06 03:23:09;;;;;;;14.73;11.43;;;4.20;1.00;;;;;;4997154;28;20454;-82
2023/03/06 03:25:36;;;;;;;16.90;13.07;;;4.30;1.00;;;;;;4997182;28;20452;-82
2023/03/06 03:28:02;;;;;;;18.93;13.87;;;4.30;1.00;;;;;;4997055;28;20455;-82
2023/03/06 03:30:29;;;;;;;19.50;13.00;;;4.30;1.00;;;;;;4996814;28;20450;-82
2023/03/06 03:32:56;;;;;;;20.10;12.97;;;4.40;1.00;;;;;;4997462;28;20436;-81
2023/03/06 03:35:24;;;;;;;17.33;13.17;;;4.30;1.00;;;;;;4997137;28;20957;-83
2023/03/06 03:37:53;;;;;;;16.73;12.97;;;4.30;1.00;;;;;;5002301;28;20433;-82
2023/03/06 03:40:20;;;;;;;19.70;14.97;;;4.30;1.00;;;;;;4996695;28;20570;-82
2023/03/06 03:42:47;;;;;;;16.47;12.57;;;4.30;1.00;;;;;;4997283;28;20828;-82
2023/03/06 03:45:13;;;;;;;15.70;11.90;;;4.30;1.00;;;;;;5000856;28;20507;-83
2023/03/06 03:47:41;;;;;;;17.27;13.10;;;4.30;1.00;;;;;;5001127;28;20440;-83
2023/03/06 03:50:09;;;;;;;18.80;14.67;;;4.40;1.00;;;;;;5000166;28;20425;-83
2023/03/06 03:52:37;;;;;;;23.07;16.47;;;4.40;1.00;;;;;;5001224;28;21041;-83
2023/03/06 03:55:05;;;;;;;19.33;14.63;;;4.40;1.00;;;;;;5000536;28;20483;-83
2023/03/06 03:57:31;;;;;;;22.40;16.30;;;4.30;1.00;;;;;;5000999;28;20558;-83
2023/03/06 03:59:58;;;;;;;22.10;16.00;;;4.40;1.00;;;;;;5000233;28;20493;-82
2023/03/06 04:02:25;;;;;;;28.00;18.20;;;4.30;1.00;;;;;;5001602;28;20460;-84
2023/03/06 04:04:52;;;;;;;26.73;16.80;;;4.30;1.00;;;;;;5004382;28;20546;-82
2023/03/06 04:07:19;;;;;;;27.20;17.83;;;4.40;1.00;;;;;;5011742;28;20458;-82
2023/03/06 04:09:47;;;;;;;24.50;16.53;;;4.30;1.00;;;;;;5011592;28;21041;-82
2023/03/06 04:12:14;;;;;;;25.63;17.23;;;4.40;1.00;;;;;;5007222;28;20489;-82
2023/03/06 04:14:40;;;;;;;23.93;17.43;;;4.40;1.00;;;;;;5003025;28;20462;-83
2023/03/06 04:17:07;;;;;;;23.10;16.93;;;4.40;1.00;;;;;;5002911;28;21020;-84
2023/03/06 04:19:34;;;;;;;22.30;14.80;;;4.40;1.00;;;;;;5000621;28;20850;-82
2023/03/06 04:22:01;;;;;;;21.17;14.63;;;4.30;1.00;;;;;;5000940;28;20516;-83
2023/03/06 04:24:28;;;;;;;18.53;14.77;;;4.20;1.00;;;;;;5001392;28;20528;-82
2023/03/06 04:26:56;;;;;;;19.23;13.57;;;4.30;1.00;;;;;;5000319;28;20871;-82
2023/03/06 04:29:23;;;;;;;19.27;13.97;;;4.20;1.00;;;;;;4999721;28;20485;-81
2023/03/06 04:31:50;;;;;;;17.93;12.60;;;4.20;1.00;;;;;;5000359;28;21093;-81
2023/03/06 04:34:16;;;;;;;16.50;11.60;;;4.10;1.00;;;;;;4999515;28;20478;-82
2023/03/06 04:36:44;;;;;;;16.73;12.27;;;4.10;1.00;;;;;;4997192;28;20455;-81
2023/03/06 04:39:12;;;;;;;20.93;13.00;;;4.10;1.00;;;;;;4996219;28;20486;-81
2023/03/06 04:41:39;;;;;;;14.20;9.27;;;4.20;1.00;;;;;;4996496;28;20455;-82
2023/03/06 04:44:08;;;;;;;14.40;9.10;;;4.10;1.00;;;;;;4996764;28;20502;-81
2023/03/06 04:46:35;;;;;;;14.00;9.73;;;4.10;1.00;;;;;;4998385;28;20434;-82
2023/03/06 04:49:02;;;;;;;15.97;11.50;;;4.00;1.00;;;;;;4995597;28;20433;-83
2023/03/06 04:51:29;;;;;;;12.87;9.53;;;4.00;1.00;;;;;;4995576;28;20923;-83
2023/03/06 04:53:56;;;;;;;13.40;8.00;;;4.00;1.00;;;;;;4995224;28;20573;-83
2023/03/06 04:56:23;;;;;;;11.20;8.90;;;4.00;1.00;;;;;;4987608;28;20458;-82
2023/03/06 04:58:49;;;;;;;12.70;9.37;;;3.90;99.90;;;;;;4994455;28;20533;-82
2023/03/06 05:01:18;;;;;;;16.73;10.53;;;3.90;99.90;;;;;;4995290;28;20569;-81
2023/03/06 05:03:44;;;;;;;13.47;8.73;;;3.70;99.90;;;;;;4994154;28;20450;-80
2023/03/06 05:06:11;;;;;;;14.23;8.17;;;3.80;99.90;;;;;;4988246;28;20464;-81
2023/03/06 05:08:38;;;;;;;14.83;10.60;;;3.80;99.90;;;;;;4994385;28;20443;-81
2023/03/06 05:11:05;;;;;;;16.10;10.93;;;3.80;78.40;;;;;;4994675;28;20447;-81
2023/03/06 05:13:32;;;;;;;15.30;10.90;;;3.80;99.90;;;;;;4993096;28;20968;-81
2023/03/06 05:16:02;;;;;;;15.40;11.23;;;3.80;99.90;;;;;;4994733;28;20467;-80
2023/03/06 05:18:31;;;;;;;16.23;11.37;;;3.70;99.90;;;;;;4994266;28;20849;-82
2023/03/06 05:20:58;;;;;;;20.33;13.83;;;3.70;99.90;;;;;;4994861;28;20477;-79
2023/03/06 05:23:25;;;;;;;22.53;14.13;;;3.70;99.90;;;;;;4994266;28;20467;-82
2023/03/06 05:25:52;;;;;;;21.17;14.00;;;3.60;99.90;;;;;;4994283;28;20475;-82
2023/03/06 05:28:19;;;;;;;25.90;16.80;;;3.60;99.90;;;;;;4994936;28;20990;-82
2023/03/06 05:30:46;;;;;;;31.17;18.60;;;3.60;99.90;;;;;;4994627;28;20434;-81
2023/03/06 05:33:13;;;;;;;30.53;18.53;;;3.60;99.90;;;;;;4995918;28;20848;-82
2023/03/06 05:35:45;;;;;;;24.10;17.83;;;3.50;99.90;;;;;;4998813;28;20478;-83
2023/03/06 05:38:12;;;;;;;25.67;18.93;;;3.70;99.90;;;;;;4994447;28;20459;-81
2023/03/06 05:40:40;;;;;;;25.73;17.40;;;3.60;99.90;;;;;;4995113;28;20855;-81
2023/03/06 05:43:07;;;;;;;27.50;18.80;;;3.70;99.90;;;;;;4996364;28;20808;-80
2023/03/06 05:45:34;;;;;;;23.70;16.77;;;3.70;99.90;;;;;;4990067;28;20477;-82
2023/03/06 05:48:00;;;;;;;26.43;18.07;;;3.70;99.90;;;;;;4995281;28;20477;-81
2023/03/06 05:50:27;;;;;;;28.63;18.07;;;3.80;99.90;;;;;;4987329;28;20446;-81
2023/03/06 05:52:56;;;;;;;25.13;18.20;;;3.80;99.90;;;;;;4965063;28;20565;-81
2023/03/06 05:55:23;;;;;;;27.60;18.37;;;3.80;99.90;;;;;;4992556;28;20457;-82
2023/03/06 05:57:50;;;;;;;30.03;18.70;;;3.80;99.90;;;;;;4992986;28;20430;-81
2023/03/06 06:00:18;;;;;;;28.03;18.77;;;3.60;99.90;;;;;;4993288;28;20467;-81
2023/03/06 06:02:45;;;;;;;28.20;17.97;;;3.60;99.90;;;;;;4993498;28;20480;-81
2023/03/06 06:05:12;;;;;;;27.00;18.53;;;3.60;99.90;;;;;;4996113;28;20492;-81
2023/03/06 06:07:39;;;;;;;32.63;18.73;;;3.60;99.90;;;;;;4995102;28;20456;-80
2023/03/06 06:10:10;;;;;;;23.23;16.90;;;3.70;99.90;;;;;;4997027;28;20456;-80
2023/03/06 06:12:37;;;;;;;26.83;16.80;;;3.70;99.90;;;;;;4998575;28;20452;-80
2023/03/06 06:15:05;;;;;;;26.53;17.73;;;3.80;99.90;;;;;;4998920;28;20597;-80
2023/03/06 06:17:32;;;;;;;32.97;20.60;;;3.90;99.90;;;;;;5000999;28;20444;-82
2023/03/06 06:19:59;;;;;;;24.60;17.97;;;3.90;99.90;;;;;;4996423;28;20472;-81
2023/03/06 06:22:26;;;;;;;24.90;16.17;;;3.90;99.90;;;;;;4996744;28;20425;-81
2023/03/06 06:24:53;;;;;;;27.33;17.87;;;4.00;1.00;;;;;;4998412;28;20477;-80
2023/03/06 06:27:21;;;;;;;21.07;15.10;;;4.00;1.00;;;;;;4995945;28;20529;-80
2023/03/06 06:29:51;;;;;;;20.67;14.77;;;4.10;1.00;;;;;;4993433;28;20890;-81
2023/03/06 06:32:18;;;;;;;21.57;14.87;;;4.00;99.90;;;;;;5002415;28;20455;-81
2023/03/06 06:34:45;;;;;;;20.07;14.40;;;4.10;99.90;;;;;;4995722;28;20485;-81
2023/03/06 06:37:12;;;;;;;20.03;12.77;;;4.10;99.90;;;;;;4994815;28;20545;-80
2023/03/06 06:39:38;;;;;;;20.50;13.90;;;4.20;1.00;;;;;;4996045;28;20480;-82
2023/03/06 06:42:07;;;;;;;16.23;11.97;;;4.20;99.90;;;;;;4995907;28;20458;-80
2023/03/06 06:44:35;;;;;;;20.63;13.93;;;4.20;99.90;;;;;;4998850;28;20456;-83
2023/03/06 06:47:03;;;;;;;21.80;13.70;;;4.10;99.90;;;;;;4998866;28;20461;-81
2023/03/06 06:49:30;;;;;;;24.30;14.43;;;4.00;1.00;;;;;;4997635;28;20461;-86
2023/03/06 06:51:57;;;;;;;25.97;16.10;;;4.00;1.00;;;;;;4997975;28;20473;-83
2023/03/06 06:54:24;;;;;;;30.60;16.00;;;4.00;1.00;;;;;;4997249;28;20501;-82
2023/03/06 06:56:51;;;;;;;23.87;15.43;;;3.90;99.90;;;;;;4997598;28;20550;-82
2023/03/06 06:59:17;;;;;;;34.17;17.07;;;3.90;99.90;;;;;;4996687;28;20480;-83
2023/03/06 07:01:46;;;;;;;26.03;17.77;;;3.90;11.30;;;;;;4996834;28;20490;-83
2023/03/06 07:04:13;;;;;;;24.27;15.10;;;3.90;99.90;;;;;;4997544;28;20465;-83
2023/03/06 07:06:39;;;;;;;32.53;18.93;;;4.00;1.00;;;;;;4997594;28;20433;-83
2023/03/06 07:09:06;;;;;;;26.40;15.83;;;4.00;99.90;;;;;;4997017;28;20473;-83
2023/03/06 07:11:33;;;;;;;23.80;15.90;;;4.00;1.00;;;;;;4998089;28;20933;-85
2023/03/06 07:14:00;;;;;;;25.53;15.10;;;4.00;99.90;;;;;;4997797;28;20429;-85
2023/03/06 07:16:27;;;;;;;25.30;15.77;;;4.00;1.00;;;;;;4998089;28;20543;-86
2023/03/06 07:18:56;;;;;;;21.50;13.70;;;4.00;1.00;;;;;;4996842;28;20519;-85
2023/03/06 07:21:22;;;;;;;20.00;13.63;;;4.00;99.90;;;;;;4997048;28;20496;-84
2023/03/06 07:23:49;;;;;;;23.17;15.23;;;3.90;99.90;;;;;;4999847;28;20496;-84
2023/03/06 07:26:16;;;;;;;30.50;17.43;;;4.00;99.90;;;;;;4996764;28;20432;-84
2023/03/06 07:28:43;;;;;;;24.80;14.47;;;4.10;99.90;;;;;;4995309;28;20429;-83
2023/03/06 07:31:10;;;;;;;23.93;16.33;;;4.20;1.00;;;;;;4997442;28;20429;-84
2023/03/06 07:33:37;;;;;;;24.80;15.57;;;4.30;1.00;;;;;;4996885;28;20462;-83
2023/03/06 07:36:09;;;;;;;29.33;17.07;;;4.40;54.30;;;;;;4997641;28;20470;-83
2023/03/06 07:38:36;;;;;;;31.23;17.67;;;4.20;1.00;;;;;;4996574;28;20457;-82
2023/03/06 07:41:03;;;;;;;29.73;17.37;;;4.30;1.00;;;;;;4995562;28;20482;-82
2023/03/06 07:43:31;;;;;;;31.53;17.80;;;4.30;99.90;;;;;;5007103;28;20468;-82
2023/03/06 07:45:59;;;;;;;33.40;18.83;;;4.20;99.90;;;;;;5000478;28;20461;-83
2023/03/06 07:48:26;;;;;;;33.50;17.50;;;4.30;1.00;;;;;;4998282;28;20458;-84
2023/03/06 07:50:58;;;;;;;31.07;19.07;;;4.30;99.90;;;;;;4987003;28;20940;-82
2023/03/06 07:53:27;;;;;;;32.03;19.47;;;4.30;99.90;;;;;;4998845;28;20542;-82
2023/03/06 07:55:54;;;;;;;30.87;19.63;;;4.30;99.90;;;;;;4996924;28;21003;-83
2023/03/06 07:58:21;;;;;;;33.70;18.70;;;4.30;99.90;;;;;;4997619;28;20455;-83
2023/03/06 08:00:48;;;;;;;26.50;16.77;;;4.30;99.90;;;;;;5006225;28;20471;-83
2023/03/06 08:03:15;;;;;;;27.37;15.70;;;4.30;1.00;;;;;;5018151;28;20434;-84
2023/03/06 08:05:42;;;;;;;29.60;16.23;;;4.30;99.90;;;;;;5011113;28;20479;-82
2023/03/06 08:08:09;;;;;;;29.33;17.17;;;4.40;1.00;;;;;;5000053;28;20425;-83
2023/03/06 08:10:37;;;;;;;31.63;17.77;;;4.40;1.00;;;;;;4996824;28;20976;-82
2023/03/06 08:13:05;;;;;;;26.00;16.43;;;4.40;99.90;;;;;;4997416;28;20461;-83
2023/03/06 08:15:32;;;;;;;32.83;18.10;;;4.40;99.90;;;;;;4996687;28;20464;-83
2023/03/06 08:17:58;;;;;;;30.00;17.87;;;4.50;99.90;;;;;;4999649;28;20454;-83
2023/03/06 08:20:25;;;;;;;27.53;16.83;;;4.40;30.90;;;;;;4998377;28;20553;-81
2023/03/06 08:22:52;;;;;;;33.97;18.00;;;4.50;99.90;;;;;;4999008;28;20457;-83
2023/03/06 08:25:19;;;;;;;28.00;17.70;;;4.70;1.00;;;;;;4997703;28;20562;-82
2023/03/06 08:27:47;;;;;;;26.13;17.53;;;4.80;99.90;;;;;;4998176;28;20427;-82
2023/03/06 08:30:14;;;;;;;25.20;15.83;;;4.80;1.00;;;;;;4997249;28;20837;-82
2023/03/06 08:32:41;;;;;;;27.63;16.83;;;4.70;1.00;;;;;;4998033;28;20472;-83
2023/03/06 08:35:09;;;;;;;27.43;18.60;;;4.70;99.90;;;;;;4997492;28;20843;-83
2023/03/06 08:37:35;;;;;;;26.03;16.30;;;4.90;1.00;;;;;;4997786;28;20457;-83
2023/03/06 08:40:03;;;;;;;29.50;18.37;;;5.00;1.00;;;;;;4996916;28;20487;-82
2023/03/06 08:42:31;;;;;;;27.13;17.00;;;4.80;20.10;;;;;;4999893;28;20427;-82
2023/03/06 08:44:59;;;;;;;30.07;16.97;;;4.70;1.00;;;;;;4997340;28;20511;-83
2023/03/06 08:47:26;;;;;;;30.20;18.53;;;4.70;99.90;;;;;;4999391;28;20546;-83
2023/03/06 08:49:52;;;;;;;24.70;17.97;;;4.70;99.90;;;;;;4996796;28;20455;-82
2023/03/06 08:52:19;;;;;;;26.40;17.80;;;4.70;83.40;;;;;;4996260;28;20463;-82
2023/03/06 08:54:46;;;;;;;24.33;14.60;;;4.60;99.90;;;;;;4997696;28;20480;-82
2023/03/06 08:57:13;;;;;;;23.13;14.87;;;4.50;99.90;;;;;;4996663;28;20549;-82
2023/03/06 08:59:40;;;;;;;25.60;15.70;;;4.40;1.00;;;;;;4996862;28;20458;-82
2023/03/06 09:02:12;;;;;;;30.53;18.53;;;4.50;1.00;;;;;;4997431;28;20486;-82
2023/03/06 09:04:38;;;;;;;24.20;16.37;;;4.30;99.90;;;;;;4997504;28;20482;-82
2023/03/06 09:07:06;;;;;;;22.33;15.90;;;4.30;99.90;;;;;;4996585;28;20551;-80
2023/03/06 09:09:33;;;;;;;28.60;17.43;;;4.20;99.90;;;;;;4995668;28;20513;-79
2023/03/06 09:12:00;;;;;;;24.97;17.83;;;4.20;99.90;;;;;;4997024;28;20450;-81
2023/03/06 09:14:27;;;;;;;29.00;16.50;;;4.20;1.00;;;;;;4997385;28;20509;-81
2023/03/06 09:16:54;;;;;;;29.67;17.93;;;4.20;1.00;;;;;;4996883;28;20466;-80
2023/03/06 09:19:22;;;;;;;29.73;17.73;;;4.20;1.00;;;;;;4997045;28;20537;-81
2023/03/06 09:21:49;;;;;;;26.70;16.90;;;4.40;1.00;;;;;;4995939;28;20475;-81
2023/03/06 09:24:16;;;;;;;25.30;17.40;;;4.60;1.00;;;;;;4997520;28;20463;-81
2023/03/06 09:26:43;;;;;;;24.73;15.67;;;4.80;1.00;;;;;;4996388;28;20813;-81
2023/03/06 09:29:11;;;;;;;27.87;18.10;;;4.80;1.00;;;;;;4995587;28;20486;-80
2023/03/06 09:31:38;;;;;;;25.70;16.17;;;4.80;1.00;;;;;;4996519;28;20941;-80
2023/03/06 09:34:05;;;;;;;25.43;16.60;;;4.90;1.00;;;;;;4995863;28;20471;-80
2023/03/06 09:36:33;;;;;;;25.70;15.03;;;4.70;1.00;;;;;;4996576;28;20460;-80
2023/03/06 09:39:00;;;;;;;28.27;16.50;;;4.80;1.00;;;;;;4996758;28;20480;-81
2023/03/06 09:41:30;;;;;;;24.33;16.03;;;4.70;1.00;;;;;;4996496;28;21011;-81
2023/03/06 09:44:03;;;;;;;25.60;15.70;;;4.90;1.00;;;;;;4996102;28;20452;-81
2023/03/06 09:46:40;;;;;;;24.40;16.80;;;4.90;1.00;;;;;;4996800;28;20491;-81
2023/03/06 09:49:22;;;;;;;24.70;16.63;;;4.90;99.90;;;;;;4998551;28;20513;-81
2023/03/06 09:52:06;;;;;;;23.73;16.33;;;4.90;1.00;;;;;;5003845;28;20455;-81
2023/03/06 09:54:41;;;;;;;25.10;16.10;;;4.70;99.90;;;;;;5000587;28;20485;-80
2023/03/06 09:57:19;;;;;;;29.03;18.03;;;4.60;1.00;;;;;;4999344;28;20955;-79
2023/03/06 09:59:50;;;;;;;30.80;18.47;;;4.60;1.00;;;;;;4996059;28;20468;-80
2023/03/06 10:02:23;;;;;;;28.50;17.53;;;4.50;1.00;;;;;;4997645;28;20527;-81
2023/03/06 10:04:52;;;;;;;24.50;16.50;;;4.50;1.00;;;;;;4997161;28;20615;-80
2023/03/06 10:07:23;;;;;;;25.00;16.83;;;4.60;1.00;;;;;;4997572;28;20481;-80
2023/03/06 10:09:56;;;;;;;29.13;17.50;;;4.60;1.00;;;;;;4995414;28;20450;-80
2023/03/06 10:12:27;;;;;;;27.87;18.83;;;4.50;99.90;;;;;;4996972;28;20457;-80
2023/03/06 10:15:06;;;;;;;26.17;17.73;;;4.40;1.00;;;;;;4996290;28;20470;-80
2023/03/06 10:17:36;;;;;;;26.47;17.03;;;4.40;1.00;;;;;;4993778;28;20459;-80
2023/03/06 10:20:16;;;;;;;27.03;18.63;;;4.50;1.00;;;;;;4995608;28;20541;-81
2023/03/06 10:22:50;;;;;;;27.00;17.90;;;4.60;99.90;;;;;;4987628;28;20461;-80
2023/03/06 10:25:24;;;;;;;26.27;16.40;;;4.90;99.90;;;;;;4994465;28;20469;-81
2023/03/06 10:27:56;;;;;;;21.10;15.30;;;5.20;1.00;;;;;;4995235;28;20433;-80
2023/03/06 10:30:31;;;;;;;23.47;15.57;;;5.40;99.90;;;;;;4995226;28;20538;-81
2023/03/06 10:32:59;;;;;;;18.90;13.30;;;5.60;1.00;;;;;;4995747;28;20414;-81
2023/03/06 10:35:31;;;;;;;21.53;14.13;;;6.00;99.90;;;;;;4997189;28;20479;-81
2023/03/06 10:38:12;;;;;;;20.93;12.90;;;6.10;99.90;;;;;;4995732;28;20473;-81
2023/03/06 10:40:47;;;;;;;17.77;12.17;;;6.30;99.90;;;;;;4994646;28;20489;-82
2023/03/06 10:43:13;;;;;;;14.40;10.43;;;5.90;1.00;;;;;;4991447;28;20450;-82
2023/03/06 10:45:48;;;;;;;15.40;10.80;;;5.80;1.00;;;;;;4998904;28;20483;-82
2023/03/06 10:48:19;;;;;;;14.80;10.27;;;5.40;20.50;;;;;;4994348;28;20555;-82
2023/03/06 10:50:46;;;;;;;19.53;12.70;;;5.50;99.90;;;;;;4994652;28;20517;-83
2023/03/06 10:53:21;;;;;;;18.80;11.70;;;5.60;99.90;;;;;;4994507;28;20437;-83
2023/03/06 10:55:53;;;;;;;14.97;10.60;;;5.30;4.10;;;;;;4995477;28;20475;-83
2023/03/06 10:58:23;;;;;;;14.93;11.17;;;5.40;99.90;;;;;;4993316;28;20467;-83
2023/03/06 11:01:02;;;;;;;13.73;10.30;;;5.50;99.90;;;;;;4999370;28;21021;-83
2023/03/06 11:03:30;;;;;;;17.43;10.10;;;5.60;99.90;;;;;;4996388;28;20466;-84
2023/03/06 11:06:09;;;;;;;16.60;10.03;;;5.80;1.00;;;;;;4994960;28;20547;-83
2023/03/06 11:08:38;;;;;;;14.10;8.87;;;6.20;1.00;;;;;;4995188;28;20556;-83
2023/03/06 11:11:07;;;;;;;13.70;9.80;;;6.40;1.00;;;;;;4996383;28;20450;-84
2023/03/06 11:13:36;;;;;;;14.10;8.33;;;6.80;1.00;;;;;;4995415;28;20879;-85
2023/03/06 11:16:06;;;;;;;18.90;8.77;;;7.00;1.00;;;;;;5002668;28;20471;-85
2023/03/06 11:18:39;;;;;;;11.20;7.40;;;7.40;99.90;;;;;;4995423;28;20484;-86
2023/03/06 11:21:27;;;;;;;11.60;8.57;;;7.70;99.90;;;;;;4996841;28;21038;-86
2023/03/06 11:23:57;;;;;;;8.90;6.80;;;7.70;99.90;;;;;;4991909;28;20527;-82
2023/03/06 11:26:38;;;;;;;7.70;4.97;;;7.70;1.00;;;;;;4994422;28;20461;-82
2023/03/06 11:29:22;;;;;;;6.23;4.77;;;7.80;1.00;;;;;;4992016;28;20454;-80
2023/03/06 11:31:54;;;;;;;7.80;5.27;;;7.60;1.00;;;;;;5004522;28;20460;-82
2023/03/06 11:34:28;;;;;;;6.00;4.67;;;7.10;1.00;;;;;;4997868;28;20473;-82
2023/03/06 11:37:00;;;;;;;7.17;4.00;;;7.30;1.00;;;;;;4999305;28;20832;-82
2023/03/06 11:39:35;;;;;;;7.13;4.90;;;7.30;1.00;;;;;;5005576;28;20521;-82
2023/03/06 11:42:10;;;;;;;5.77;3.90;;;8.40;1.00;;;;;;5000847;28;20521;-84
2023/03/06 11:44:50;;;;;;;5.73;3.57;;;10.60;1.00;;;;;;5001270;28;20470;-84
2023/03/06 11:47:19;;;;;;;4.03;3.33;;;13.60;99.90;;;;;;5000114;28;20523;-82
2023/03/06 11:49:51;;;;;;;5.00;3.60;;;13.70;99.90;;;;;;5006786;28;20450;-82
2023/03/06 11:52:25;;;;;;;8.57;5.30;;;13.00;99.90;;;;;;5007865;28;20453;-83
2023/03/06 11:54:57;;;;;;;6.90;5.47;;;12.80;99.90;;;;;;5004711;28;20466;-83
2023/03/06 11:57:34;;;;;;;6.37;5.10;;;13.70;99.90;;;;;;5008186;28;20486;-82
2023/03/06 12:00:15;;;;;;;13.47;8.60;;;15.10;99.90;;;;;;5010529;28;21078;-84
2023/03/06 12:03:12;;;;;;;12.83;10.57;;;17.20;99.90;;;;;;5000997;28;20552;-84
2023/03/06 12:05:44;;;;;;;15.17;13.57;;;18.20;99.90;;;;;;4991188;28;20472;-84
2023/03/06 12:08:32;;;;;;;14.30;12.30;;;19.10;99.90;;;;;;4996685;28;20465;-83
2023/03/06 12:11:11;;;;;;;14.10;12.13;;;19.20;99.90;;;;;;4996360;28;20461;-83
2023/03/06 12:14:16;;;;;;;15.07;12.10;;;20.10;99.90;;;;;;4999417;28;20525;-83
2023/03/06 12:17:09;;;;;;;15.37;13.60;;;17.70;99.90;;;;;;4990151;28;20539;-83
2023/03/06 12:19:52;;;;;;;14.20;11.70;;;14.40;99.90;;;;;;4998205;28;20450;-82
2023/03/06 12:22:31;;;;;;;13.83;10.47;;;12.50;99.90;;;;;;4999567;28;20482;-83
2023/03/06 12:25:39;;;;;;;12.13;9.73;;;11.40;99.90;;;;;;4997666;28;20505;-83
2023/03/06 12:28:30;;;;;;;9.40;8.17;;;11.30;99.90;;;;;;4919180;29;20469;-82
2023/03/06 12:31:34;;;;;;;12.43;9.63;;;13.70;99.90;;;;;;4985796;28;20562;-83
2023/03/06 12:34:26;;;;;;;11.77;10.23;;;15.40;99.90;;;;;;4982646;28;20456;-83
2023/03/06 12:37:08;;;;;;;10.43;8.93;;;16.10;99.90;;;;;;5000628;28;20455;-84
2023/03/06 12:39:47;;;;;;;11.37;8.53;;;17.60;99.90;;;;;;4999174;28;20834;-84
2023/03/06 12:42:33;;;;;;;10.77;9.03;;;17.90;99.90;;;;;;5002330;28;20496;-83
2023/03/06 12:45:26;;;;;;;12.60;9.83;;;17.00;99.90;;;;;;4999141;28;20525;-84
2023/03/06 12:47:56;;;;;;;10.90;8.87;;;15.90;99.90;;;;;;4998205;28;20972;-84
2023/03/06 12:50:26;;;;;;;13.83;10.37;;;14.50;99.90;;;;;;4999541;28;20462;-83
2023/03/06 12:52:54;;;;;;;11.40;9.33;;;12.90;99.90;;;;;;5000618;28;20446;-84
2023/03/06 12:55:23;;;;;;;14.07;9.03;;;11.90;99.90;;;;;;4998135;28;20472;-84